createdAt,value
2022-09-21T00:00:21.102Z,92.88
2022-09-21T00:02:48.000Z,113.22
2022-09-21T00:05:14.898Z,109.85
2022-09-21T00:07:41.728Z,91.95
2022-09-21T00:10:10.518Z,96.45
2022-09-21T00:12:40.045Z,109.00
2022-09-21T00:15:08.386Z,116.32
2022-09-21T00:17:36.736Z,121.70
2022-09-21T00:20:05.787Z,110.05
2022-09-21T00:22:32.933Z,111.82
2022-09-21T00:25:01.472Z,120.07
2022-09-21T00:27:30.444Z,121.72
2022-09-21T00:29:57.747Z,122.70
2022-09-21T00:32:25.270Z,128.50
2022-09-21T00:34:52.364Z,134.40
2022-09-21T00:37:19.590Z,140.93
2022-09-21T00:39:46.688Z,126.28
2022-09-21T00:42:18.395Z,114.05
2022-09-21T00:47:16.328Z,105.85
2022-09-21T00:49:49.558Z,101.28
2022-09-21T00:52:17.754Z,102.68
2022-09-21T00:54:49.497Z,108.95
2022-09-21T00:59:46.835Z,127.72
2022-09-21T01:02:15.486Z,140.38
2022-09-21T01:04:42.525Z,117.45
2022-09-21T01:07:14.170Z,125.18
2022-09-21T01:09:43.490Z,122.65
2022-09-21T01:12:26.746Z,122.60
2022-09-21T01:15:05.659Z,124.60
2022-09-21T01:17:45.088Z,121.53
2022-09-21T01:20:50.089Z,132.57
2022-09-21T01:23:39.990Z,129.80
2022-09-21T01:26:16.187Z,138.57
2022-09-21T01:29:13.669Z,145.75
2022-09-21T01:31:49.124Z,159.20
2022-09-21T01:34:21.800Z,152.13
2022-09-21T01:36:50.166Z,149.77
2022-09-21T01:39:20.744Z,144.63
2022-09-21T01:41:51.961Z,189.38
2022-09-21T01:44:23.326Z,135.40
2022-09-21T01:46:51.110Z,127.63
2022-09-21T01:49:21.751Z,111.95
2022-09-21T01:51:53.462Z,113.85
2022-09-21T01:54:24.952Z,111.20
2022-09-21T01:56:59.648Z,134.63
2022-09-21T01:59:35.278Z,129.48
2022-09-21T02:02:09.897Z,147.65
2022-09-21T02:04:37.925Z,195.60
2022-09-21T02:07:05.014Z,145.50
2022-09-21T02:09:32.810Z,152.60
2022-09-21T02:12:02.212Z,148.23
2022-09-21T02:14:33.423Z,152.10
2022-09-21T02:17:10.726Z,179.95
2022-09-21T02:19:45.435Z,115.50
2022-09-21T02:22:18.790Z,131.80
2022-09-21T02:24:48.295Z,120.35
2022-09-21T02:27:25.836Z,160.75
2022-09-21T02:30:02.100Z,116.85
2022-09-21T02:32:36.078Z,137.90
2022-09-21T02:35:09.304Z,76.07
2022-09-21T02:37:44.213Z,74.78
2022-09-21T02:40:22.440Z,75.57
2022-09-21T02:42:53.776Z,73.88
2022-09-21T02:45:25.630Z,73.60
2022-09-21T02:50:25.844Z,70.35
2022-09-21T02:52:54.664Z,69.07
2022-09-21T02:55:22.738Z,68.10
2022-09-21T02:57:50.233Z,68.32
2022-09-21T03:00:17.649Z,68.45
2022-09-21T03:02:46.209Z,68.72
2022-09-21T03:05:14.874Z,68.22
2022-09-21T03:07:41.939Z,68.28
2022-09-21T03:10:09.686Z,68.25
2022-09-21T03:12:37.110Z,68.50
2022-09-21T03:15:04.784Z,68.75
2022-09-21T03:17:31.731Z,68.63
2022-09-21T03:19:59.962Z,68.10
2022-09-21T03:22:27.585Z,68.10
2022-09-21T03:24:57.546Z,68.90
2022-09-21T03:27:24.602Z,68.13
2022-09-21T03:29:51.446Z,68.10
2022-09-21T03:32:18.385Z,68.25
2022-09-21T03:34:45.193Z,68.20
2022-09-21T03:37:13.448Z,67.70
2022-09-21T03:39:40.279Z,68.28
2022-09-21T03:42:09.195Z,68.32
2022-09-21T03:44:37.526Z,67.80
2022-09-21T03:47:06.695Z,67.88
2022-09-21T03:49:34.902Z,67.85
2022-09-21T03:52:02.344Z,68.55
2022-09-21T03:54:30.735Z,68.47
2022-09-21T03:56:57.621Z,69.72
2022-09-21T03:59:24.538Z,69.32
2022-09-21T04:01:51.446Z,69.13
2022-09-21T04:04:18.328Z,70.60
2022-09-21T04:06:46.259Z,69.32
2022-09-21T04:09:13.300Z,70.60
2022-09-21T04:11:41.835Z,69.63
2022-09-21T04:14:08.636Z,70.35
2022-09-21T04:16:35.480Z,70.25
2022-09-21T04:19:02.634Z,69.90
2022-09-21T04:21:30.104Z,69.85
2022-09-21T04:23:56.953Z,70.63
2022-09-21T04:26:25.823Z,70.68
2022-09-21T04:28:55.341Z,70.57
2022-09-21T04:31:23.683Z,70.00
2022-09-21T04:33:52.034Z,69.00
2022-09-21T04:36:20.018Z,70.13
2022-09-21T04:38:47.236Z,72.05
2022-09-21T04:41:15.031Z,70.15
2022-09-21T04:43:42.477Z,72.82
2022-09-21T04:46:12.886Z,75.50
2022-09-21T04:48:40.386Z,73.90
2022-09-21T04:51:08.103Z,73.78
2022-09-21T04:53:35.879Z,73.10
2022-09-21T04:56:04.893Z,70.45
2022-09-21T04:58:32.269Z,71.45
2022-09-21T05:00:59.413Z,71.72
2022-09-21T05:03:28.001Z,71.65
2022-09-21T05:05:56.651Z,71.38
2022-09-21T05:08:44.202Z,73.28
2022-09-21T05:11:13.290Z,74.40
2022-09-21T05:13:40.350Z,75.95
2022-09-21T05:16:07.283Z,77.65
2022-09-21T05:18:35.956Z,77.68
2022-09-21T05:21:04.238Z,74.80
2022-09-21T05:23:31.942Z,74.40
2022-09-21T05:25:59.707Z,79.03
2022-09-21T05:28:27.464Z,75.65
2022-09-21T05:31:16.595Z,77.38
2022-09-21T05:33:52.124Z,76.75
2022-09-21T05:36:41.315Z,76.97
2022-09-21T05:39:08.746Z,74.90
2022-09-21T05:41:36.450Z,75.43
2022-09-21T05:44:03.854Z,76.40
2022-09-21T05:46:39.198Z,75.47
2022-09-21T05:49:17.221Z,75.78
2022-09-21T05:51:54.640Z,76.60
2022-09-21T05:54:30.567Z,78.00
2022-09-21T05:57:05.511Z,77.85
2022-09-21T05:59:57.735Z,75.05
2022-09-21T06:05:33.914Z,72.82
2022-09-21T06:11:03.642Z,72.20
2022-09-21T06:22:32.497Z,78.70
2022-09-21T06:24:59.353Z,78.72
2022-09-21T06:30:28.700Z,79.80
2022-09-21T06:32:59.273Z,80.68
2022-09-21T06:35:26.542Z,81.13
2022-09-21T06:37:57.940Z,84.85
2022-09-21T06:40:24.881Z,89.57
2022-09-21T06:42:55.926Z,86.43
2022-09-21T06:45:22.788Z,84.63
2022-09-21T06:47:49.783Z,83.20
2022-09-21T06:50:16.715Z,83.53
2022-09-21T06:52:43.603Z,87.00
2022-09-21T06:55:12.325Z,92.97
2022-09-21T06:57:40.006Z,93.00
2022-09-21T07:00:10.263Z,91.20
2022-09-21T07:02:37.181Z,89.80
2022-09-21T07:05:04.731Z,93.07
2022-09-21T07:07:31.648Z,94.13
2022-09-21T07:10:07.564Z,92.07
2022-09-21T07:12:37.470Z,91.78
2022-09-21T07:15:06.069Z,92.38
2022-09-21T07:17:33.598Z,93.15
2022-09-21T07:20:01.964Z,94.00
2022-09-21T07:22:29.076Z,94.22
2022-09-21T07:24:56.559Z,94.53
2022-09-21T07:27:23.755Z,100.88
2022-09-21T07:29:52.034Z,92.57
2022-09-21T07:32:19.318Z,92.97
2022-09-21T07:34:46.667Z,92.43
2022-09-21T07:37:14.486Z,94.22
2022-09-21T07:39:41.331Z,95.35
2022-09-21T07:42:08.241Z,98.60
2022-09-21T07:44:35.140Z,97.05
2022-09-21T07:47:03.506Z,95.15
2022-09-21T07:49:30.517Z,94.63
2022-09-21T07:52:01.484Z,94.15
2022-09-21T07:54:31.022Z,93.43
2022-09-21T07:57:18.119Z,92.38
2022-09-21T07:59:45.917Z,92.90
2022-09-21T08:02:14.185Z,91.25
2022-09-21T08:04:41.085Z,91.05
2022-09-21T08:07:08.320Z,93.63
2022-09-21T08:09:35.188Z,93.40
2022-09-21T08:12:02.448Z,91.22
2022-09-21T08:14:29.503Z,91.60
2022-09-21T08:16:56.314Z,91.22
2022-09-21T08:19:27.691Z,91.78
2022-09-21T08:21:57.882Z,91.15
2022-09-21T08:24:26.853Z,88.43
2022-09-21T08:26:53.849Z,89.38
2022-09-21T08:29:20.979Z,90.47
2022-09-21T08:31:48.022Z,89.80
2022-09-21T08:34:16.218Z,89.00
2022-09-21T08:36:44.417Z,90.50
2022-09-21T08:39:11.290Z,88.50
2022-09-21T08:41:55.687Z,91.18
2022-09-21T08:44:26.723Z,91.53
2022-09-21T08:47:03.841Z,94.07
2022-09-21T08:49:35.241Z,101.03
2022-09-21T08:52:07.783Z,97.97
2022-09-21T08:54:41.931Z,101.75
2022-09-21T08:57:12.000Z,127.20
2022-09-21T08:59:42.912Z,134.95
2022-09-21T09:02:30.579Z,113.53
2022-09-21T09:05:03.394Z,111.55
2022-09-21T09:07:52.477Z,105.05
2022-09-21T09:10:36.529Z,104.68
2022-09-21T09:13:17.979Z,106.47
2022-09-21T09:15:52.845Z,100.65
2022-09-21T09:18:29.291Z,104.55
2022-09-21T09:21:00.836Z,106.78
2022-09-21T09:28:33.948Z,100.25
2022-09-21T09:31:05.225Z,98.43
2022-09-21T09:33:46.164Z,98.03
2022-09-21T09:36:14.121Z,95.13
2022-09-21T09:38:47.452Z,93.28
2022-09-21T09:41:39.093Z,95.55
2022-09-21T09:44:23.108Z,93.90
2022-09-21T09:47:00.176Z,93.75
2022-09-21T09:49:36.617Z,94.75
2022-09-21T09:52:05.395Z,93.47
2022-09-21T09:54:35.613Z,93.40
2022-09-21T09:57:04.233Z,94.43
2022-09-21T09:59:37.119Z,93.82
2022-09-21T10:02:06.492Z,98.78
2022-09-21T10:04:34.875Z,96.82
2022-09-21T10:07:02.014Z,96.63
2022-09-21T10:09:31.317Z,96.80
2022-09-21T10:12:01.850Z,96.82
2022-09-21T10:14:34.274Z,96.60
2022-09-21T10:17:06.278Z,96.40
2022-09-21T10:19:33.879Z,94.57
2022-09-21T10:22:02.724Z,95.10
2022-09-21T10:24:33.567Z,93.70
2022-09-21T10:27:10.359Z,93.55
2022-09-21T10:29:42.753Z,97.63
2022-09-21T10:32:22.138Z,101.30
2022-09-21T10:35:18.083Z,101.38
2022-09-21T10:37:48.409Z,103.97
2022-09-21T10:40:27.873Z,108.05
2022-09-21T10:42:58.761Z,107.50
2022-09-21T10:45:27.207Z,101.85
2022-09-21T10:47:57.216Z,102.78
2022-09-21T10:50:29.293Z,104.85
2022-09-21T10:53:00.699Z,103.18
2022-09-21T10:55:30.632Z,101.53
2022-09-21T10:57:59.996Z,112.63
2022-09-21T11:00:35.422Z,134.48
2022-09-21T11:03:28.436Z,139.13
2022-09-21T11:05:57.816Z,113.80
2022-09-21T11:08:31.102Z,147.13
2022-09-21T11:11:09.105Z,102.85
2022-09-21T11:13:42.150Z,147.18
2022-09-21T11:16:15.338Z,169.50
2022-09-21T11:18:51.936Z,105.20
2022-09-21T11:21:27.517Z,160.30
2022-09-21T11:24:03.783Z,155.98
2022-09-21T11:29:23.359Z,136.90
2022-09-21T11:32:06.224Z,143.23
2022-09-21T11:34:53.603Z,136.57
2022-09-21T11:37:37.218Z,153.35
2022-09-21T11:40:16.779Z,118.40
2022-09-21T11:42:55.975Z,103.55
2022-09-21T11:45:40.791Z,128.98
2022-09-21T11:48:20.020Z,99.03
2022-09-21T11:50:57.626Z,98.50
2022-09-21T11:53:38.152Z,97.60
2022-09-21T11:56:31.405Z,96.97
2022-09-21T11:59:08.149Z,96.60
2022-09-21T12:01:50.446Z,96.93
2022-09-21T12:04:37.549Z,98.28
2022-09-21T12:07:17.786Z,97.93
2022-09-21T12:10:16.847Z,97.63
2022-09-21T12:12:50.373Z,98.07
2022-09-21T12:15:24.517Z,98.13
2022-09-21T12:18:00.671Z,97.88
2022-09-21T12:20:36.237Z,97.75
2022-09-21T12:23:09.049Z,97.88
2022-09-21T12:25:41.310Z,98.15
2022-09-21T12:28:17.521Z,97.80
2022-09-21T12:30:48.057Z,96.80
2022-09-21T12:33:22.388Z,98.20
2022-09-21T12:35:55.071Z,97.47
2022-09-21T12:38:27.628Z,95.90
2022-09-21T12:41:04.252Z,95.63
2022-09-21T12:43:37.126Z,94.13
2022-09-21T12:46:11.229Z,92.22
2022-09-21T12:48:40.284Z,92.20
2022-09-21T12:51:13.662Z,94.78
2022-09-21T12:53:49.878Z,97.72
2022-09-21T12:56:29.412Z,95.18
2022-09-21T12:59:17.751Z,95.13
2022-09-21T13:01:56.305Z,94.63
2022-09-21T13:04:41.944Z,96.47
2022-09-21T13:07:44.155Z,95.60
2022-09-21T13:10:18.856Z,95.75
2022-09-21T13:12:53.091Z,95.68
2022-09-21T13:15:25.342Z,98.03
2022-09-21T13:18:00.066Z,97.40
2022-09-21T13:20:34.647Z,97.28
2022-09-21T13:23:02.382Z,97.53
2022-09-21T13:25:31.175Z,97.93
2022-09-21T13:28:13.476Z,97.10
2022-09-21T13:30:42.640Z,98.35
2022-09-21T13:33:46.583Z,98.80
2022-09-21T13:36:33.967Z,98.70
2022-09-21T13:39:18.917Z,112.45
2022-09-21T13:42:02.483Z,99.07
2022-09-21T13:44:42.375Z,96.57
2022-09-21T13:47:12.012Z,96.03
2022-09-21T13:49:43.521Z,94.88
2022-09-21T13:52:30.614Z,93.15
2022-09-21T13:55:00.132Z,93.07
2022-09-21T13:57:34.987Z,93.25
2022-09-21T14:00:35.988Z,93.50
2022-09-21T14:03:06.771Z,93.10
2022-09-21T14:05:39.755Z,91.90
2022-09-21T14:08:21.235Z,92.95
2022-09-21T14:10:53.150Z,92.53
2022-09-21T14:13:32.366Z,94.32
2022-09-21T14:16:45.672Z,95.55
2022-09-21T14:19:50.097Z,143.68
2022-09-21T14:22:44.426Z,141.00
2022-09-21T14:25:30.841Z,126.88
2022-09-21T14:28:12.118Z,176.45
2022-09-21T14:30:39.939Z,168.65
2022-09-21T14:33:22.681Z,185.98
2022-09-21T14:35:51.960Z,165.43
2022-09-21T14:38:22.791Z,92.22
2022-09-21T14:40:52.830Z,91.55
2022-09-21T14:43:25.575Z,90.28
2022-09-21T14:46:17.201Z,90.82
2022-09-21T14:51:23.859Z,90.10
2022-09-21T14:54:10.265Z,90.68
2022-09-21T14:57:04.145Z,95.40
2022-09-21T14:59:48.157Z,97.03
2022-09-21T15:02:21.201Z,168.25
2022-09-21T15:05:03.890Z,182.02
2022-09-21T15:08:00.349Z,195.15
2022-09-21T15:10:52.995Z,189.82
2022-09-21T15:13:51.836Z,223.73
2022-09-21T15:16:26.321Z,171.55
2022-09-21T15:19:05.921Z,136.38
2022-09-21T15:21:33.345Z,122.72
2022-09-21T15:24:16.696Z,143.50
2022-09-21T15:26:44.324Z,149.27
2022-09-21T15:29:24.479Z,153.57
2022-09-21T15:31:51.882Z,151.38
2022-09-21T15:34:18.947Z,151.85
2022-09-21T15:36:52.219Z,136.07
2022-09-21T15:39:24.815Z,113.65
2022-09-21T15:42:08.313Z,106.28
2022-09-21T15:44:38.389Z,102.30
2022-09-21T15:47:09.539Z,98.85
2022-09-21T15:49:41.561Z,97.13
2022-09-21T15:52:24.646Z,95.90
2022-09-21T15:54:56.507Z,95.07
2022-09-21T15:57:35.956Z,94.80
2022-09-21T16:00:17.152Z,96.53
2022-09-21T16:03:02.323Z,97.15
2022-09-21T16:05:29.633Z,96.05
2022-09-21T16:08:05.976Z,93.32
2022-09-21T16:10:39.204Z,97.88
2022-09-21T16:13:30.919Z,118.90
2022-09-21T16:21:15.043Z,102.78
2022-09-21T16:23:42.255Z,97.93
2022-09-21T16:26:19.183Z,100.72
2022-09-21T16:28:46.329Z,102.10
2022-09-21T16:31:30.660Z,101.45
2022-09-21T16:34:04.811Z,100.10
2022-09-21T16:36:38.068Z,101.45
2022-09-21T16:39:12.843Z,101.55
2022-09-21T16:41:47.305Z,100.53
2022-09-21T16:44:20.657Z,103.05
2022-09-21T16:46:52.817Z,97.07
2022-09-21T16:49:21.778Z,97.38
2022-09-21T16:51:49.583Z,99.13
2022-09-21T16:54:17.983Z,100.90
2022-09-21T16:56:46.456Z,104.50
2022-09-21T16:59:16.337Z,111.13
2022-09-21T17:01:43.773Z,100.63
2022-09-21T17:04:13.467Z,98.25
2022-09-21T17:06:40.621Z,101.07
2022-09-21T17:09:20.872Z,96.18
2022-09-21T17:11:49.184Z,92.28
2022-09-21T17:14:16.254Z,92.13
2022-09-21T17:16:47.792Z,93.18
2022-09-21T17:21:45.556Z,100.07
2022-09-21T17:24:27.530Z,122.38
2022-09-21T17:27:00.310Z,104.82
2022-09-21T17:29:28.308Z,119.90
2022-09-21T17:31:57.955Z,100.20
2022-09-21T17:34:27.599Z,96.55
2022-09-21T17:36:55.415Z,90.90
2022-09-21T17:39:23.679Z,91.70
2022-09-21T17:41:53.311Z,93.88
2022-09-21T17:44:39.818Z,99.93
2022-09-21T17:47:13.808Z,107.85
2022-09-21T17:49:42.687Z,101.68
2022-09-21T17:52:34.295Z,96.47
2022-09-21T17:55:05.833Z,99.32
2022-09-21T17:57:46.000Z,92.85
2022-09-21T18:00:18.494Z,94.28
2022-09-21T18:02:46.166Z,89.38
2022-09-21T18:05:24.006Z,87.40
2022-09-21T18:07:51.356Z,87.05
2022-09-21T18:10:19.125Z,85.53
2022-09-21T18:13:14.212Z,83.65
2022-09-21T18:15:54.338Z,82.68
2022-09-21T18:18:35.197Z,81.55
2022-09-21T18:21:09.035Z,82.70
2022-09-21T18:23:45.043Z,82.53
2022-09-21T18:26:16.537Z,81.18
2022-09-21T18:28:45.796Z,80.20
2022-09-21T18:31:32.691Z,80.15
2022-09-21T18:34:13.904Z,80.03
2022-09-21T18:36:48.599Z,80.20
2022-09-21T18:39:24.758Z,80.45
2022-09-21T18:42:09.194Z,80.88
2022-09-21T18:44:44.673Z,80.03
2022-09-21T18:47:19.473Z,80.07
2022-09-21T18:49:54.808Z,79.90
2022-09-21T18:52:39.606Z,79.70
2022-09-21T18:55:23.705Z,80.72
2022-09-21T18:57:51.407Z,80.15
2022-09-21T19:00:21.581Z,79.80
2022-09-21T19:03:15.342Z,79.93
2022-09-21T19:05:39.704Z,80.18
2022-09-21T19:08:16.000Z,81.15
2022-09-21T19:10:50.410Z,81.35
2022-09-21T19:13:32.573Z,85.10
2022-09-21T19:16:11.617Z,80.60
2022-09-21T19:18:46.413Z,79.57
2022-09-21T19:21:27.253Z,79.40
2022-09-21T19:24:06.291Z,80.00
2022-09-21T19:26:40.371Z,79.20
2022-09-21T19:29:28.112Z,79.05
2022-09-21T19:31:55.186Z,78.97
2022-09-21T19:34:22.451Z,80.05
2022-09-21T19:36:49.770Z,80.45
2022-09-21T19:39:19.386Z,80.05
2022-09-21T19:42:00.415Z,81.30
2022-09-21T19:44:42.033Z,85.53
2022-09-21T19:47:17.489Z,84.97
2022-09-21T19:49:48.807Z,85.85
2022-09-21T19:52:17.935Z,86.57
2022-09-21T19:55:09.989Z,90.38
2022-09-21T19:57:56.210Z,98.10
2022-09-21T20:00:24.118Z,87.60
2022-09-21T20:03:01.444Z,81.80
2022-09-21T20:05:37.250Z,80.25
2022-09-21T20:08:11.131Z,78.55
2022-09-21T20:11:01.936Z,78.05
2022-09-21T20:13:49.498Z,79.55
2022-09-21T20:16:31.235Z,77.47
2022-09-21T20:21:35.749Z,79.53
2022-09-21T20:24:11.489Z,78.68
2022-09-21T20:26:40.044Z,79.40
2022-09-21T20:29:08.335Z,84.38
2022-09-21T20:31:35.337Z,79.63
2022-09-21T20:34:02.149Z,78.07
2022-09-21T20:36:29.079Z,80.10
2022-09-21T20:38:57.784Z,78.43
2022-09-21T20:41:25.055Z,77.75
2022-09-21T20:43:53.218Z,80.68
2022-09-21T20:46:20.351Z,79.75
2022-09-21T20:48:47.306Z,79.53
2022-09-21T20:51:14.173Z,80.32
2022-09-21T20:53:41.293Z,80.00
2022-09-21T20:56:08.247Z,81.35
2022-09-21T20:58:35.783Z,81.68
2022-09-21T21:01:05.472Z,83.07
2022-09-21T21:03:32.862Z,81.47
2022-09-21T21:06:10.631Z,80.03
2022-09-21T21:08:37.615Z,80.13
2022-09-21T21:11:04.686Z,78.82
2022-09-21T21:13:31.845Z,77.97
2022-09-21T21:16:00.239Z,78.13
2022-09-21T21:18:28.506Z,78.40
2022-09-21T21:20:55.326Z,79.18
2022-09-21T21:23:22.145Z,78.25
2022-09-21T21:25:49.057Z,78.00
2022-09-21T21:28:15.932Z,77.53
2022-09-21T21:30:42.836Z,77.25
2022-09-21T21:33:10.166Z,76.78
2022-09-21T21:35:38.653Z,77.10
2022-09-21T21:38:05.466Z,76.13
2022-09-21T21:40:32.395Z,77.28
2022-09-21T21:42:59.317Z,78.45
2022-09-21T21:45:26.150Z,79.78
2022-09-21T21:47:54.365Z,77.32
2022-09-21T21:50:21.272Z,77.97
2022-09-21T21:52:50.106Z,76.97
2022-09-21T21:55:17.161Z,77.22
2022-09-21T21:57:44.019Z,77.60
2022-09-21T22:00:12.403Z,76.65
2022-09-21T22:02:39.261Z,76.63
2022-09-21T22:05:07.075Z,76.05
2022-09-21T22:07:33.994Z,76.07
2022-09-21T22:10:03.035Z,75.47
2022-09-21T22:12:29.902Z,76.10
2022-09-21T22:14:56.747Z,75.03
2022-09-21T22:17:23.779Z,75.68
2022-09-21T22:19:51.470Z,75.18
2022-09-21T22:22:18.262Z,74.80
2022-09-21T22:24:45.238Z,74.07
2022-09-21T22:27:13.440Z,73.78
2022-09-21T22:29:40.647Z,75.13
2022-09-21T22:32:07.495Z,76.70
2022-09-21T22:34:34.317Z,76.55
2022-09-21T22:37:01.126Z,77.03
2022-09-21T22:39:27.990Z,77.22
2022-09-21T22:41:54.878Z,78.28
2022-09-21T22:44:23.062Z,77.75
2022-09-21T22:46:49.920Z,77.85
2022-09-21T22:49:16.732Z,77.13
2022-09-21T22:51:43.769Z,78.07
2022-09-21T22:54:10.590Z,77.55
2022-09-21T22:56:37.774Z,79.38
2022-09-21T22:59:05.570Z,76.95
2022-09-21T23:01:35.672Z,77.93
2022-09-21T23:04:04.581Z,77.28
2022-09-21T23:06:33.470Z,76.75
2022-09-21T23:09:02.355Z,76.97
2022-09-21T23:11:31.224Z,76.30
2022-09-21T23:13:59.453Z,77.22
2022-09-21T23:16:28.076Z,75.97
2022-09-21T23:18:57.782Z,75.82
2022-09-21T23:21:26.431Z,76.05
2022-09-21T23:23:55.742Z,76.20
2022-09-21T23:26:24.281Z,75.93
2022-09-21T23:28:53.416Z,75.63
2022-09-21T23:31:21.112Z,76.40
2022-09-21T23:33:49.539Z,75.65
2022-09-21T23:36:19.806Z,76.05
2022-09-21T23:38:47.773Z,76.65
2022-09-21T23:41:17.712Z,76.03
2022-09-21T23:43:45.402Z,75.88
2022-09-21T23:46:15.058Z,76.55
2022-09-21T23:48:42.857Z,76.30
2022-09-21T23:51:10.178Z,76.60
2022-09-21T23:53:39.201Z,76.50
2022-09-21T23:56:07.538Z,76.47
2022-09-21T23:58:34.544Z,74.95
